Time;durP1;ratioP1;P1;durP2;ratioP2;P2;SDS_P1;SDS_P2;PMS_P1;PMS_P2;Temp;Humidity;BMP_temperature;BMP_pressure;BME280_temperature;BME280_humidity;BME280_pressure;Samples;Min_cycle;Max_cycle;Signal;HPM_P1;HPM_P2
2021/07/06 00:01:42;;;;;;;5.90;5.40;;;19.00;54.80;;;;;;5044405;28;20477;-55
2021/07/06 00:04:07;;;;;;;4.80;4.40;;;18.90;58.80;;;;;;5038803;28;20182;-51
2021/07/06 00:06:33;;;;;;;5.10;4.70;;;18.90;66.00;;;;;;5031246;28;20197;-53
2021/07/06 00:08:58;;;;;;;4.83;4.40;;;18.90;69.10;;;;;;5045500;28;20213;-52
2021/07/06 00:11:24;;;;;;;4.63;4.33;;;18.90;67.90;;;;;;5035869;28;20193;-53
2021/07/06 00:13:50;;;;;;;5.27;4.70;;;18.80;70.10;;;;;;5041200;28;20182;-51
2021/07/06 00:16:15;;;;;;;5.30;4.90;;;18.80;67.20;;;;;;5045423;28;20695;-53
2021/07/06 00:18:41;;;;;;;5.07;4.67;;;18.70;73.60;;;;;;5033266;28;20213;-53
2021/07/06 00:21:08;;;;;;;6.40;5.10;;;18.60;78.30;;;;;;5035321;28;20196;-54
2021/07/06 00:23:34;;;;;;;5.30;4.90;;;18.60;83.60;;;;;;5041182;28;20178;-50
2021/07/06 00:25:59;;;;;;;4.80;4.50;;;18.50;87.00;;;;;;5047222;28;20456;-53
2021/07/06 00:28:25;;;;;;;5.00;4.60;;;18.50;90.00;;;;;;5044983;28;20433;-52
2021/07/06 00:30:52;;;;;;;5.03;4.53;;;18.40;90.70;;;;;;5039263;28;20177;-53
2021/07/06 00:33:17;;;;;;;5.17;4.77;;;18.40;92.00;;;;;;5033103;28;20317;-52
2021/07/06 00:35:43;;;;;;;5.87;5.37;;;18.30;92.50;;;;;;5029443;28;20504;-49
2021/07/06 00:38:09;;;;;;;5.17;4.87;;;18.20;94.10;;;;;;5027604;28;20449;-53
2021/07/06 00:40:36;;;;;;;5.30;4.90;;;18.20;96.10;;;;;;5028879;28;20186;-52
2021/07/06 00:43:01;;;;;;;5.18;4.75;;;18.20;98.60;;;;;;5043293;28;20428;-52
2021/07/06 00:45:28;;;;;;;6.67;5.40;;;18.20;98.10;;;;;;5038781;28;20201;-52
2021/07/06 00:47:54;;;;;;;5.00;4.60;;;18.20;98.60;;;;;;5041647;28;20933;-55
2021/07/06 00:50:23;;;;;;;5.27;4.87;;;18.10;99.90;;;;;;5035108;28;20466;-55
2021/07/06 00:52:49;;;;;;;5.23;4.73;;;18.10;99.90;;;;;;5049022;28;20174;-50
2021/07/06 00:55:15;;;;;;;5.60;5.20;;;18.10;99.90;;;;;;5053474;28;20442;-52
2021/07/06 00:57:41;;;;;;;5.43;5.03;;;18.00;99.90;;;;;;5039119;28;20439;-52
2021/07/06 01:00:09;;;;;;;5.40;5.00;;;18.00;99.90;;;;;;5045909;28;20234;-54
2021/07/06 01:02:34;;;;;;;5.63;5.23;;;17.90;99.90;;;;;;5041923;28;20940;-52
2021/07/06 01:05:00;;;;;;;5.03;4.63;;;17.90;99.90;;;;;;5049458;28;20475;-55
2021/07/06 01:07:26;;;;;;;5.43;4.70;;;17.90;99.90;;;;;;5050388;28;20251;-53
2021/07/06 01:09:51;;;;;;;5.70;5.30;;;17.80;99.90;;;;;;5061358;28;20201;-51
2021/07/06 01:12:17;;;;;;;5.40;4.93;;;17.80;99.90;;;;;;5032943;28;20265;-52
2021/07/06 01:14:43;;;;;;;5.10;4.80;;;17.70;99.90;;;;;;5045835;28;20197;-52
2021/07/06 01:17:09;;;;;;;5.80;5.23;;;17.60;99.90;;;;;;5032992;28;20282;-52
2021/07/06 01:19:37;;;;;;;5.67;5.10;;;17.60;99.90;;;;;;5037190;28;20538;-55
2021/07/06 01:22:06;;;;;;;6.00;5.50;;;17.50;99.90;;;;;;5040899;28;20442;-52
2021/07/06 01:24:36;;;;;;;5.57;5.17;;;17.50;99.90;;;;;;5042593;28;20466;-53
2021/07/06 01:27:02;;;;;;;5.30;4.90;;;17.50;99.90;;;;;;5042649;28;20432;-52
2021/07/06 01:29:28;;;;;;;5.10;4.70;;;17.50;99.90;;;;;;5045339;28;21099;-52
2021/07/06 01:31:53;;;;;;;5.43;4.93;;;17.50;99.90;;;;;;5034346;28;20432;-52
2021/07/06 01:34:19;;;;;;;5.50;5.10;;;17.50;99.90;;;;;;5052796;28;20228;-54
2021/07/06 01:36:45;;;;;;;5.77;5.27;;;17.50;99.90;;;;;;5052480;28;20196;-53
2021/07/06 01:39:12;;;;;;;5.10;4.70;;;17.40;99.90;;;;;;5051576;28;20189;-52
2021/07/06 01:41:39;;;;;;;5.97;5.47;;;17.40;99.90;;;;;;5052267;28;20451;-53
2021/07/06 01:44:17;;;;;;;5.47;5.07;;;17.40;99.90;;;;;;5052662;28;20420;-54
2021/07/06 01:46:43;;;;;;;5.70;5.20;;;17.30;99.90;;;;;;5051558;28;20434;-52
2021/07/06 01:49:12;;;;;;;5.70;5.20;;;17.30;99.90;;;;;;5045927;28;20780;-52
2021/07/06 01:51:38;;;;;;;5.97;5.47;;;17.20;99.90;;;;;;5032414;28;20162;-55
2021/07/06 01:54:03;;;;;;;6.00;5.60;;;17.20;99.90;;;;;;5044425;28;20508;-51
2021/07/06 01:56:29;;;;;;;5.87;5.47;;;17.20;99.90;;;;;;5058119;28;20632;-51
2021/07/06 01:58:56;;;;;;;12.17;6.00;;;17.10;99.90;;;;;;5054474;28;20193;-54
2021/07/06 02:01:21;;;;;;;7.10;5.83;;;17.10;99.90;;;;;;5036767;28;20581;-52
2021/07/06 02:03:51;;;;;;;6.70;6.10;;;17.00;99.90;;;;;;5032188;28;20433;-55
2021/07/06 02:06:16;;;;;;;7.20;6.60;;;17.00;99.90;;;;;;5046525;28;20198;-53
2021/07/06 02:08:42;;;;;;;6.20;5.60;;;17.00;99.90;;;;;;5032215;28;20735;-53
2021/07/06 02:11:08;;;;;;;6.47;5.87;;;17.00;99.90;;;;;;5031690;28;20182;-52
2021/07/06 02:13:33;;;;;;;6.37;5.77;;;16.90;99.90;;;;;;5037672;28;20231;-54
2021/07/06 02:16:00;;;;;;;6.33;5.57;;;16.90;99.90;;;;;;5051743;28;20420;-53
2021/07/06 02:18:27;;;;;;;6.90;6.17;;;16.80;99.90;;;;;;5047375;28;20186;-51
2021/07/06 02:20:55;;;;;;;6.43;5.93;;;16.90;99.90;;;;;;5040195;28;20437;-50
2021/07/06 02:23:22;;;;;;;7.10;6.50;;;16.90;99.90;;;;;;5039607;28;20199;-51
2021/07/06 02:25:49;;;;;;;7.13;6.53;;;16.90;99.90;;;;;;5051724;28;20491;-51
2021/07/06 02:28:15;;;;;;;7.17;6.47;;;16.80;99.90;;;;;;5049988;28;21093;-54
2021/07/06 02:30:41;;;;;;;6.50;6.00;;;16.70;99.90;;;;;;5049728;28;20504;-52
2021/07/06 02:33:07;;;;;;;7.32;6.53;;;16.70;99.90;;;;;;5051298;28;20455;-54
2021/07/06 02:35:32;;;;;;;7.07;6.37;;;16.70;99.90;;;;;;5049115;28;20221;-50
2021/07/06 02:38:00;;;;;;;6.53;6.03;;;16.60;99.90;;;;;;5040678;28;20194;-53
2021/07/06 02:40:27;;;;;;;8.63;6.87;;;16.60;99.90;;;;;;5036867;28;20181;-52
2021/07/06 02:42:53;;;;;;;6.53;6.03;;;16.60;99.90;;;;;;5040456;28;20486;-53
2021/07/06 02:45:19;;;;;;;8.07;7.20;;;16.50;99.90;;;;;;5031221;28;20462;-50
2021/07/06 02:47:46;;;;;;;7.27;6.60;;;16.50;99.90;;;;;;5034754;28;20437;-54
2021/07/06 02:50:13;;;;;;;7.80;7.00;;;16.40;99.90;;;;;;5049121;28;20410;-52
2021/07/06 02:52:39;;;;;;;6.80;6.20;;;16.40;99.90;;;;;;5049981;28;20431;-53
2021/07/06 02:55:06;;;;;;;7.33;6.57;;;16.40;99.90;;;;;;5047988;28;20420;-56
2021/07/06 02:57:39;;;;;;;7.90;7.10;;;16.40;99.90;;;;;;5047334;28;20192;-53
2021/07/06 03:00:08;;;;;;;7.83;7.20;;;16.40;99.90;;;;;;5051501;28;20467;-55
2021/07/06 03:02:33;;;;;;;7.90;7.13;;;16.40;99.90;;;;;;5041082;28;20452;-55
2021/07/06 03:04:59;;;;;;;8.60;7.80;;;16.40;99.90;;;;;;5038894;28;20208;-53
2021/07/06 03:07:25;;;;;;;7.30;6.60;;;16.50;99.90;;;;;;5049347;28;20191;-53
2021/07/06 03:09:50;;;;;;;7.27;6.57;;;16.60;99.90;;;;;;5030907;28;20219;-52
2021/07/06 03:12:16;;;;;;;8.40;6.77;;;16.60;99.90;;;;;;5044028;28;20191;-53
2021/07/06 03:14:41;;;;;;;7.47;6.60;;;16.50;99.90;;;;;;5050443;28;20177;-54
2021/07/06 03:17:07;;;;;;;7.97;7.27;;;16.40;99.90;;;;;;5045063;28;20522;-55
2021/07/06 03:19:32;;;;;;;7.63;6.93;;;16.30;99.90;;;;;;5048456;28;20184;-56
2021/07/06 03:21:58;;;;;;;7.53;6.93;;;16.30;99.90;;;;;;5039799;28;20188;-55
2021/07/06 03:24:23;;;;;;;7.73;7.03;;;16.30;99.90;;;;;;5044661;28;20224;-54
2021/07/06 03:26:49;;;;;;;8.13;7.27;;;16.30;99.90;;;;;;5030272;28;20602;-54
2021/07/06 03:29:14;;;;;;;7.87;6.77;;;16.30;99.90;;;;;;5046912;28;20179;-56
2021/07/06 03:31:40;;;;;;;8.77;7.17;;;16.30;99.90;;;;;;5049573;28;20193;-54
2021/07/06 03:34:05;;;;;;;8.83;8.07;;;16.30;99.90;;;;;;5031959;28;20206;-53
2021/07/06 03:36:31;;;;;;;7.73;7.03;;;16.20;99.90;;;;;;5030249;28;20230;-56
2021/07/06 03:38:56;;;;;;;9.40;8.37;;;16.20;99.90;;;;;;5044631;28;20694;-56
2021/07/06 03:41:22;;;;;;;7.73;6.93;;;16.20;99.90;;;;;;5048844;28;20187;-54
2021/07/06 03:43:47;;;;;;;10.90;7.47;;;16.20;99.90;;;;;;5036140;28;20643;-54
2021/07/06 03:46:13;;;;;;;7.73;7.13;;;16.20;99.90;;;;;;5030013;28;20195;-54
2021/07/06 03:48:38;;;;;;;8.30;7.60;;;16.30;99.90;;;;;;5030071;28;20548;-56
2021/07/06 03:51:04;;;;;;;7.43;6.83;;;16.30;99.90;;;;;;5033104;28;20185;-55
2021/07/06 03:53:29;;;;;;;7.87;7.20;;;16.30;99.90;;;;;;5030230;28;20180;-53
2021/07/06 03:55:55;;;;;;;7.77;7.07;;;16.30;99.90;;;;;;5035893;28;20548;-53
2021/07/06 03:58:20;;;;;;;7.90;7.20;;;16.30;99.90;;;;;;5040250;28;20191;-56
2021/07/06 04:00:46;;;;;;;7.67;6.97;;;16.40;99.90;;;;;;5031259;28;20256;-56
2021/07/06 04:03:12;;;;;;;7.40;6.80;;;16.40;99.90;;;;;;5035113;28;20223;-52
2021/07/06 04:05:38;;;;;;;7.53;6.90;;;16.50;99.90;;;;;;5033997;28;20221;-56
2021/07/06 04:08:04;;;;;;;7.33;6.73;;;16.50;99.90;;;;;;5030710;28;20989;-51
2021/07/06 04:10:30;;;;;;;8.13;6.20;;;16.50;99.90;;;;;;5030852;28;20617;-54
2021/07/06 04:12:55;;;;;;;6.77;6.17;;;16.60;99.90;;;;;;5029645;28;20192;-56
2021/07/06 04:15:21;;;;;;;6.83;6.23;;;16.70;99.90;;;;;;5029214;28;20542;-55
2021/07/06 04:17:48;;;;;;;6.73;6.07;;;16.80;99.90;;;;;;5031324;28;20854;-54
2021/07/06 04:20:14;;;;;;;6.20;5.70;;;16.90;99.90;;;;;;5027957;28;20495;-55
2021/07/06 04:22:41;;;;;;;6.77;6.17;;;16.90;99.90;;;;;;5040672;28;20435;-55
2021/07/06 04:25:07;;;;;;;6.67;6.10;;;17.10;99.90;;;;;;5038775;28;20408;-56
2021/07/06 04:27:33;;;;;;;6.72;6.00;;;17.10;99.90;;;;;;5045685;28;20431;-52
2021/07/06 04:29:59;;;;;;;11.20;6.20;;;17.20;99.90;;;;;;5049092;28;20196;-54
2021/07/06 04:32:24;;;;;;;8.50;5.63;;;17.20;99.90;;;;;;5048741;28;20742;-56
2021/07/06 04:34:50;;;;;;;5.73;5.23;;;17.30;99.90;;;;;;5048634;28;20205;-49
2021/07/06 04:37:16;;;;;;;5.87;5.37;;;17.30;99.90;;;;;;5048707;28;20173;-54
2021/07/06 04:39:42;;;;;;;6.50;6.00;;;17.30;99.90;;;;;;5050014;28;20432;-56
2021/07/06 04:42:08;;;;;;;7.47;5.60;;;17.30;99.90;;;;;;5054396;28;20417;-55
2021/07/06 04:44:34;;;;;;;5.80;5.30;;;17.40;99.90;;;;;;5044275;28;20181;-51
2021/07/06 04:47:00;;;;;;;5.93;5.43;;;17.50;99.90;;;;;;5043725;28;20456;-54
2021/07/06 04:49:28;;;;;;;5.73;5.33;;;17.50;99.90;;;;;;5029693;28;20472;-54
2021/07/06 04:51:54;;;;;;;6.03;5.50;;;17.60;99.90;;;;;;5029984;28;20186;-56
2021/07/06 04:54:23;;;;;;;5.13;4.63;;;17.60;99.90;;;;;;5038076;28;20432;-52
2021/07/06 04:56:50;;;;;;;7.93;5.30;;;17.70;99.90;;;;;;5032912;28;20429;-55
2021/07/06 04:59:16;;;;;;;7.57;5.77;;;17.80;99.90;;;;;;5052182;28;20428;-52
2021/07/06 05:01:42;;;;;;;6.10;5.47;;;17.80;99.90;;;;;;5046025;28;20548;-53
2021/07/06 05:04:07;;;;;;;5.13;4.60;;;17.90;99.90;;;;;;5043003;28;20188;-54
2021/07/06 05:06:33;;;;;;;5.50;5.00;;;18.00;99.90;;;;;;5028378;28;20182;-54
2021/07/06 05:08:59;;;;;;;5.43;4.90;;;18.10;99.90;;;;;;5034633;28;20178;-57
2021/07/06 05:11:25;;;;;;;5.53;5.10;;;18.20;99.90;;;;;;5036477;28;20193;-56
2021/07/06 05:13:50;;;;;;;5.40;5.00;;;18.30;99.90;;;;;;5033653;28;20786;-57
2021/07/06 05:16:16;;;;;;;5.47;4.97;;;18.40;99.90;;;;;;5047780;28;20851;-52
2021/07/06 05:18:41;;;;;;;5.60;5.20;;;18.50;98.90;;;;;;5048564;28;20668;-54
2021/07/06 05:21:07;;;;;;;5.47;4.97;;;18.60;96.30;;;;;;5045760;28;20228;-55
2021/07/06 05:23:33;;;;;;;5.47;4.60;;;18.60;96.70;;;;;;5047127;28;20182;-57
2021/07/06 05:25:58;;;;;;;4.90;4.50;;;18.70;92.70;;;;;;5045974;28;20209;-56
2021/07/06 05:28:24;;;;;;;4.67;4.27;;;18.80;84.70;;;;;;5048639;28;20498;-54
2021/07/06 05:30:50;;;;;;;5.23;4.83;;;18.80;83.10;;;;;;5040157;28;20194;-56
2021/07/06 05:33:16;;;;;;;5.00;4.60;;;18.90;78.20;;;;;;5048698;28;20409;-56
2021/07/06 05:35:41;;;;;;;4.70;4.40;;;18.90;74.80;;;;;;5037802;28;20727;-55
2021/07/06 05:38:07;;;;;;;5.20;4.80;;;19.00;76.90;;;;;;5028885;28;20171;-57
2021/07/06 05:40:38;;;;;;;4.90;4.50;;;19.00;74.50;;;;;;5048821;28;20189;-57
2021/07/06 05:43:06;;;;;;;4.60;4.20;;;19.10;74.40;;;;;;5043397;28;20272;-57
2021/07/06 05:45:36;;;;;;;4.10;3.80;;;19.30;71.10;;;;;;5039689;28;20542;-53
2021/07/06 05:48:02;;;;;;;4.77;4.47;;;19.40;57.60;;;;;;5052175;28;20424;-56
2021/07/06 05:50:29;;;;;;;4.80;4.30;;;19.50;55.20;;;;;;5042636;28;20425;-57
2021/07/06 05:52:54;;;;;;;4.83;4.43;;;19.50;53.90;;;;;;5045799;28;20446;-54
2021/07/06 05:55:20;;;;;;;5.10;4.60;;;19.50;53.30;;;;;;5042927;28;20779;-58
2021/07/06 05:57:45;;;;;;;4.53;4.23;;;19.60;48.90;;;;;;5031593;28;20214;-55
2021/07/06 06:00:14;;;;;;;4.57;4.27;;;19.70;52.60;;;;;;5043035;28;20210;-54
2021/07/06 06:02:39;;;;;;;5.17;4.10;;;19.70;55.10;;;;;;5033515;28;20184;-54
2021/07/06 06:05:06;;;;;;;5.17;4.77;;;19.80;50.40;;;;;;5047419;28;20487;-53
2021/07/06 06:07:43;;;;;;;4.83;4.50;;;19.80;45.00;;;;;;5044983;28;20190;-55
2021/07/06 06:10:11;;;;;;;5.13;4.80;;;19.90;37.10;;;;;;5044460;28;20440;-54
2021/07/06 06:12:38;;;;;;;5.53;5.03;;;20.00;35.10;;;;;;5048757;28;20428;-56
2021/07/06 06:15:05;;;;;;;5.50;5.00;;;20.10;35.50;;;;;;5049455;28;21286;-54
2021/07/06 06:17:31;;;;;;;4.97;4.57;;;20.20;32.40;;;;;;5051065;28;20415;-53
2021/07/06 06:19:57;;;;;;;4.90;4.50;;;20.30;29.50;;;;;;5048972;28;20778;-55
2021/07/06 06:22:23;;;;;;;4.83;4.43;;;20.30;26.40;;;;;;5047868;28;20181;-56
2021/07/06 06:24:48;;;;;;;4.93;4.53;;;20.50;21.90;;;;;;5051307;28;20644;-55
2021/07/06 06:27:15;;;;;;;4.70;4.30;;;20.50;22.10;;;;;;5046060;28;20991;-54
2021/07/06 06:29:41;;;;;;;4.83;4.40;;;20.60;22.30;;;;;;5051207;28;20186;-57
2021/07/06 06:32:07;;;;;;;5.40;4.93;;;20.70;16.60;;;;;;5049727;28;20444;-52
2021/07/06 06:34:32;;;;;;;5.03;4.63;;;20.70;14.70;;;;;;5041538;28;20437;-53
2021/07/06 06:36:58;;;;;;;4.93;4.60;;;20.80;10.00;;;;;;5042161;28;20496;-56
2021/07/06 06:39:24;;;;;;;5.20;4.80;;;20.90;10.90;;;;;;5038872;28;20186;-57
2021/07/06 06:41:50;;;;;;;5.40;5.00;;;21.00;4.90;;;;;;5041224;28;20205;-56
2021/07/06 06:44:16;;;;;;;5.57;5.17;;;21.00;1.70;;;;;;5047541;28;20173;-54
2021/07/06 06:46:41;;;;;;;5.30;4.90;;;21.00;4.70;;;;;;5052567;28;20431;-54
2021/07/06 06:49:07;;;;;;;5.30;4.83;;;21.20;1.90;;;;;;5048008;28;20424;-58
2021/07/06 06:51:33;;;;;;;6.20;5.70;;;21.30;1.00;;;;;;5036812;28;20214;-56
2021/07/06 06:53:59;;;;;;;5.87;5.37;;;21.30;1.00;;;;;;5048121;28;20998;-56
2021/07/06 06:56:25;;;;;;;5.33;4.90;;;21.40;1.00;;;;;;5030982;28;20352;-56
2021/07/06 06:58:50;;;;;;;6.20;5.70;;;21.50;1.00;;;;;;5033977;28;20520;-57
2021/07/06 07:01:16;;;;;;;5.90;5.50;;;21.60;1.00;;;;;;5047755;28;20231;-54
2021/07/06 07:03:41;;;;;;;5.63;5.13;;;21.70;1.00;;;;;;5038208;28;20185;-55
2021/07/06 07:06:07;;;;;;;5.60;5.10;;;21.80;1.00;;;;;;5038864;28;20305;-56
2021/07/06 07:08:33;;;;;;;5.63;5.23;;;21.90;1.00;;;;;;5045655;28;20545;-56
2021/07/06 07:10:58;;;;;;;5.10;4.60;;;21.90;1.00;;;;;;5039631;28;20314;-57
2021/07/06 07:13:26;;;;;;;5.50;5.10;;;22.00;1.00;;;;;;5038314;28;20190;-56
2021/07/06 07:15:52;;;;;;;5.90;5.40;;;22.10;1.00;;;;;;5031991;28;20205;-55
2021/07/06 07:18:17;;;;;;;5.37;5.00;;;22.30;1.00;;;;;;5044725;28;20261;-54
2021/07/06 07:20:43;;;;;;;5.50;5.00;;;22.40;1.00;;;;;;5036341;28;20229;-55
2021/07/06 07:23:09;;;;;;;5.63;5.13;;;22.60;1.00;;;;;;5042615;28;20206;-56
2021/07/06 07:25:34;;;;;;;5.23;4.93;;;22.70;1.00;;;;;;5036543;28;20223;-57
2021/07/06 07:28:00;;;;;;;5.43;5.03;;;22.80;1.00;;;;;;5048576;28;20178;-56
2021/07/06 07:30:26;;;;;;;4.87;4.57;;;22.90;1.00;;;;;;5049082;28;20181;-55
2021/07/06 07:32:51;;;;;;;5.40;5.10;;;23.00;1.00;;;;;;5043772;28;20234;-57
2021/07/06 07:35:18;;;;;;;5.00;4.70;;;23.10;1.00;;;;;;5043751;28;21049;-56
2021/07/06 07:37:44;;;;;;;5.30;4.90;;;23.20;1.00;;;;;;5038619;28;20187;-53
2021/07/06 07:40:12;;;;;;;5.03;4.63;;;23.30;1.00;;;;;;5048405;28;20435;-53
2021/07/06 07:42:38;;;;;;;4.90;4.60;;;23.40;1.00;;;;;;5037479;28;20410;-56
2021/07/06 07:45:05;;;;;;;4.57;4.27;;;23.50;1.00;;;;;;5032476;28;20753;-54
2021/07/06 07:47:30;;;;;;;4.67;4.37;;;23.60;1.00;;;;;;5043905;28;20436;-53
2021/07/06 07:49:56;;;;;;;4.63;4.33;;;23.70;1.00;;;;;;5036010;28;20807;-55
2021/07/06 07:52:21;;;;;;;5.37;4.97;;;23.80;99.90;;;;;;5039664;28;20188;-54
2021/07/06 07:54:47;;;;;;;5.40;5.00;;;24.00;99.90;;;;;;5030916;28;20210;-55
2021/07/06 07:57:23;;;;;;;4.90;4.50;;;24.00;99.90;;;;;;5044335;28;20185;-57
2021/07/06 07:59:49;;;;;;;4.23;3.93;;;24.20;99.90;;;;;;5044927;28;20185;-55
2021/07/06 08:02:15;;;;;;;3.97;3.67;;;24.30;99.90;;;;;;5045582;28;20413;-58
2021/07/06 08:04:40;;;;;;;3.43;3.23;;;24.50;1.00;;;;;;5044537;28;20468;-56
2021/07/06 08:07:07;;;;;;;3.00;2.80;;;24.60;1.00;;;;;;5047400;28;20186;-55
2021/07/06 08:09:32;;;;;;;2.67;2.47;;;24.70;53.00;;;;;;5042395;28;20194;-56
2021/07/06 08:11:58;;;;;;;3.20;3.00;;;24.80;1.00;;;;;;5039802;28;20772;-57
2021/07/06 08:14:23;;;;;;;3.97;3.70;;;24.90;1.00;;;;;;5041992;28;20174;-57
2021/07/06 08:16:51;;;;;;;3.80;3.60;;;25.00;99.90;;;;;;5041106;28;20180;-55
2021/07/06 08:19:17;;;;;;;3.67;3.40;;;25.10;99.90;;;;;;5034459;28;20206;-54
2021/07/06 08:21:43;;;;;;;3.53;3.33;;;25.10;99.90;;;;;;5031814;28;20413;-58
2021/07/06 08:24:09;;;;;;;3.92;3.63;;;25.20;99.90;;;;;;5035379;28;20497;-57
2021/07/06 08:26:36;;;;;;;3.43;3.23;;;25.20;1.00;;;;;;5043463;28;20189;-55
2021/07/06 08:29:02;;;;;;;3.97;3.77;;;25.40;99.90;;;;;;5042066;28;20178;-57
2021/07/06 08:31:28;;;;;;;4.15;3.95;;;25.40;99.90;;;;;;5033714;28;20771;-56
2021/07/06 08:33:54;;;;;;;3.87;3.67;;;25.40;99.90;;;;;;5044802;28;20186;-53
2021/07/06 08:36:19;;;;;;;4.13;3.93;;;25.50;99.90;;;;;;5039007;28;20194;-51
2021/07/06 08:38:45;;;;;;;3.37;3.17;;;25.50;99.90;;;;;;5038778;28;20185;-54
2021/07/06 08:41:12;;;;;;;4.57;3.70;;;25.60;99.90;;;;;;5029373;28;20343;-55
2021/07/06 08:43:38;;;;;;;4.33;4.03;;;25.80;1.00;;;;;;5040917;28;21040;-56
2021/07/06 08:46:04;;;;;;;10.80;4.17;;;25.90;99.90;;;;;;5042337;28;20429;-57
2021/07/06 08:48:33;;;;;;;3.40;3.20;;;26.00;1.00;;;;;;5046158;28;20618;-57
2021/07/06 08:51:00;;;;;;;3.93;3.63;;;26.10;1.00;;;;;;5048187;28;20983;-56
2021/07/06 08:53:28;;;;;;;4.10;3.90;;;26.20;1.00;;;;;;5048132;28;20487;-57
2021/07/06 08:55:54;;;;;;;4.23;3.93;;;26.30;1.00;;;;;;5045991;28;20247;-53
2021/07/06 08:58:20;;;;;;;3.93;3.73;;;26.40;99.90;;;;;;5048811;28;20867;-55
2021/07/06 09:00:45;;;;;;;4.53;4.13;;;26.40;99.90;;;;;;5045644;28;20567;-56
2021/07/06 09:03:11;;;;;;;4.17;3.97;;;26.40;99.90;;;;;;5045942;28;20182;-56
2021/07/06 09:05:38;;;;;;;4.07;3.87;;;26.60;72.70;;;;;;5045068;28;20233;-56
2021/07/06 09:08:05;;;;;;;3.97;3.78;;;26.70;7.70;;;;;;5048591;28;20719;-55
2021/07/06 09:10:39;;;;;;;4.20;3.90;;;27.00;79.80;;;;;;5041324;28;20208;-54
2021/07/06 09:13:18;;;;;;;4.03;3.80;;;27.20;1.00;;;;;;5047012;28;20413;-54
2021/07/06 09:15:51;;;;;;;3.70;3.50;;;27.20;1.00;;;;;;5041733;28;20209;-56
2021/07/06 09:18:17;;;;;;;4.53;4.27;;;27.20;1.00;;;;;;5037531;28;20645;-54
2021/07/06 09:20:57;;;;;;;4.10;3.80;;;27.40;1.00;;;;;;5050211;28;20412;-53
2021/07/06 09:23:32;;;;;;;4.50;4.20;;;27.70;1.00;;;;;;5051692;28;20224;-52
2021/07/06 09:26:18;;;;;;;4.20;4.00;;;27.70;1.00;;;;;;5036084;28;20881;-51
2021/07/06 09:28:50;;;;;;;4.43;4.23;;;27.80;1.00;;;;;;5048394;28;20482;-56
2021/07/06 09:31:21;;;;;;;4.90;4.60;;;27.60;1.00;;;;;;5046191;28;20436;-57
2021/07/06 09:34:11;;;;;;;4.40;4.20;;;27.60;1.00;;;;;;5049758;28;20423;-53
2021/07/06 09:36:49;;;;;;;4.63;4.40;;;27.30;1.00;;;;;;5046173;28;20475;-57
2021/07/06 09:39:20;;;;;;;5.80;4.15;;;27.30;1.00;;;;;;5041854;28;20438;-56
2021/07/06 09:41:55;;;;;;;5.30;4.80;;;27.40;1.00;;;;;;5051228;28;20637;-57
2021/07/06 09:44:32;;;;;;;4.70;4.30;;;27.60;1.00;;;;;;5048440;28;20894;-56
2021/07/06 09:47:05;;;;;;;4.90;4.70;;;27.70;1.00;;;;;;5051608;28;21171;-57
2021/07/06 09:49:35;;;;;;;4.70;4.50;;;27.70;1.00;;;;;;5046903;28;20432;-57
2021/07/06 09:52:21;;;;;;;5.00;4.80;;;27.80;1.00;;;;;;5048354;28;20432;-56
2021/07/06 09:54:56;;;;;;;4.10;3.90;;;27.80;1.00;;;;;;5042845;28;20821;-56
2021/07/06 09:57:33;;;;;;;4.75;4.55;;;27.70;1.00;;;;;;5043049;28;20498;-57
2021/07/06 10:00:03;;;;;;;5.00;4.70;;;27.70;1.00;;;;;;5038788;28;20298;-57
2021/07/06 10:02:30;;;;;;;5.00;4.80;;;28.00;1.00;;;;;;5051496;28;20858;-56
2021/07/06 10:04:58;;;;;;;5.07;4.77;;;28.30;1.00;;;;;;5041615;28;21009;-55
2021/07/06 10:07:25;;;;;;;5.70;5.20;;;28.30;1.00;;;;;;5037820;28;20418;-55
2021/07/06 10:09:52;;;;;;;5.50;4.87;;;28.20;1.00;;;;;;5033841;28;20795;-56
2021/07/06 10:12:18;;;;;;;5.07;4.78;;;28.30;1.00;;;;;;5041019;28;20409;-56
2021/07/06 10:14:45;;;;;;;5.00;4.80;;;28.40;1.00;;;;;;5046356;28;20202;-56
2021/07/06 10:17:11;;;;;;;4.97;4.68;;;28.50;1.00;;;;;;5045096;28;20428;-56
2021/07/06 10:19:44;;;;;;;5.40;5.03;;;28.70;1.00;;;;;;5036035;28;20186;-53
2021/07/06 10:22:11;;;;;;;5.47;4.93;;;28.70;1.00;;;;;;5049700;28;20914;-56
2021/07/06 10:24:44;;;;;;;4.97;4.77;;;28.70;1.00;;;;;;5049136;28;20493;-56
2021/07/06 10:27:21;;;;;;;5.60;5.30;;;28.60;1.00;;;;;;5046795;28;20444;-58
2021/07/06 10:29:47;;;;;;;5.40;5.00;;;28.40;1.00;;;;;;5036946;28;20412;-57
2021/07/06 10:32:38;;;;;;;5.40;5.10;;;28.50;1.00;;;;;;5034695;28;20424;-57
2021/07/06 10:35:08;;;;;;;4.75;4.55;;;28.80;1.00;;;;;;5040949;28;20950;-53
2021/07/06 10:37:34;;;;;;;5.20;4.90;;;29.20;1.00;;;;;;5035910;28;20195;-58
2021/07/06 10:40:21;;;;;;;5.10;4.90;;;29.50;1.00;;;;;;5038514;28;20498;-58
2021/07/06 10:42:50;;;;;;;5.13;4.93;;;29.70;1.00;;;;;;5041857;28;20803;-57
2021/07/06 10:45:22;;;;;;;5.53;5.23;;;29.60;1.00;;;;;;5038507;28;20427;-55
2021/07/06 10:47:53;;;;;;;4.30;4.10;;;29.70;1.00;;;;;;5038322;28;20499;-58
2021/07/06 10:50:42;;;;;;;4.77;4.57;;;29.70;1.00;;;;;;5036478;28;20424;-58
2021/07/06 10:53:23;;;;;;;4.90;4.70;;;29.60;1.00;;;;;;5036261;28;20773;-54
2021/07/06 10:56:05;;;;;;;4.77;4.57;;;29.70;1.00;;;;;;5037087;28;20452;-57
2021/07/06 10:58:54;;;;;;;4.70;4.50;;;29.80;1.00;;;;;;5033855;28;20425;-58
2021/07/06 11:01:52;;;;;;;4.80;4.57;;;29.80;1.00;;;;;;5033686;28;20886;-56
2021/07/06 11:04:36;;;;;;;4.83;4.63;;;29.80;1.00;;;;;;5033431;28;20408;-56
2021/07/06 11:07:09;;;;;;;4.73;4.53;;;29.90;99.90;;;;;;5040239;28;21008;-58
2021/07/06 11:09:35;;;;;;;5.10;4.80;;;29.90;99.90;;;;;;5044367;28;20459;-55
2021/07/06 11:12:23;;;;;;;4.57;4.37;;;30.10;1.00;;;;;;5034478;28;20457;-55
2021/07/06 11:14:53;;;;;;;4.38;4.13;;;30.40;99.90;;;;;;5035476;28;20174;-57
2021/07/06 11:18:10;;;;;;;4.37;4.17;;;30.40;99.90;;;;;;5042342;28;20626;-54
2021/07/06 11:20:43;;;;;;;4.30;4.10;;;30.80;99.90;;;;;;5044831;28;20464;-55
2021/07/06 11:23:29;;;;;;;4.50;4.30;;;31.10;99.90;;;;;;5035909;28;20422;-55
2021/07/06 11:26:01;;;;;;;4.10;3.90;;;31.20;99.90;;;;;;5041670;28;20460;-57
2021/07/06 11:28:27;;;;;;;4.43;4.13;;;31.40;99.90;;;;;;5044843;28;20466;-57
2021/07/06 11:30:55;;;;;;;3.87;3.77;;;31.40;99.90;;;;;;5042029;28;20424;-57
2021/07/06 11:33:23;;;;;;;4.40;4.10;;;31.10;99.90;;;;;;5042117;28;20467;-55
2021/07/06 11:35:53;;;;;;;4.50;4.30;;;30.90;99.90;;;;;;5041815;28;20453;-55
2021/07/06 11:38:42;;;;;;;4.07;3.87;;;30.70;99.90;;;;;;5043175;28;20785;-56
2021/07/06 11:41:11;;;;;;;3.90;3.70;;;30.70;99.90;;;;;;5034899;28;20417;-57
2021/07/06 11:43:38;;;;;;;4.00;3.90;;;30.90;99.90;;;;;;5044383;28;20405;-55
2021/07/06 11:46:06;;;;;;;4.07;3.90;;;31.30;99.90;;;;;;5036053;28;20421;-58
2021/07/06 11:48:34;;;;;;;4.50;4.30;;;31.50;99.90;;;;;;5038470;28;20499;-57
2021/07/06 11:51:03;;;;;;;3.87;3.67;;;31.70;99.90;;;;;;5037728;28;20407;-57
2021/07/06 11:53:31;;;;;;;4.00;3.80;;;32.00;99.90;;;;;;5037663;28;20548;-58
2021/07/06 11:55:58;;;;;;;3.97;3.80;;;32.10;99.90;;;;;;5043385;28;20452;-55
2021/07/06 11:58:32;;;;;;;3.95;3.72;;;32.30;99.90;;;;;;5046720;28;20411;-58
2021/07/06 12:00:59;;;;;;;4.40;4.20;;;32.60;99.90;;;;;;5046362;28;20675;-57
2021/07/06 12:03:35;;;;;;;4.23;4.03;;;32.90;99.90;;;;;;5047575;28;20493;-56
2021/07/06 12:06:04;;;;;;;4.07;3.87;;;32.80;99.90;;;;;;5046247;28;20470;-56
2021/07/06 12:08:34;;;;;;;3.90;3.70;;;33.00;99.90;;;;;;5039856;28;20422;-57
2021/07/06 12:11:00;;;;;;;3.97;3.77;;;33.20;99.90;;;;;;5037791;28;20424;-57
2021/07/06 12:13:29;;;;;;;4.07;3.87;;;33.40;99.90;;;;;;5048912;28;20949;-55
2021/07/06 12:16:01;;;;;;;3.87;3.67;;;33.40;99.90;;;;;;5046659;28;20222;-57
2021/07/06 12:18:27;;;;;;;4.10;3.90;;;33.10;99.90;;;;;;5046632;28;20432;-55
2021/07/06 12:21:05;;;;;;;3.73;3.63;;;33.20;99.90;;;;;;5041197;28;20922;-57
2021/07/06 12:23:31;;;;;;;4.33;4.13;;;33.20;99.90;;;;;;5040444;28;20261;-55
2021/07/06 12:25:58;;;;;;;4.30;4.10;;;33.50;99.90;;;;;;5042709;28;20505;-55
2021/07/06 12:28:25;;;;;;;4.03;3.83;;;33.30;99.90;;;;;;5045028;28;20948;-58
2021/07/06 12:31:30;;;;;;;3.80;3.70;;;33.30;99.90;;;;;;5047351;28;20906;-57
2021/07/06 12:34:14;;;;;;;3.80;3.70;;;33.10;99.90;;;;;;5040028;28;20520;-57
2021/07/06 12:36:45;;;;;;;4.00;3.80;;;33.10;99.90;;;;;;5045467;28;20471;-63
2021/07/06 12:39:18;;;;;;;3.80;3.70;;;33.30;99.90;;;;;;5040962;28;20424;-63
2021/07/06 12:41:47;;;;;;;3.53;3.43;;;33.50;99.90;;;;;;5044958;28;21157;-64
2021/07/06 12:44:16;;;;;;;3.23;3.03;;;33.60;99.90;;;;;;5045475;28;20428;-63
2021/07/06 12:46:41;;;;;;;4.10;3.90;;;33.90;99.90;;;;;;5044391;28;20432;-63
2021/07/06 12:49:07;;;;;;;3.20;3.10;;;33.90;99.90;;;;;;5045893;28;20435;-63
2021/07/06 12:51:33;;;;;;;3.70;3.50;;;33.80;99.90;;;;;;5047582;28;20671;-63
2021/07/06 12:54:04;;;;;;;3.87;3.67;;;34.20;99.90;;;;;;5038163;28;20208;-63
2021/07/06 12:56:32;;;;;;;3.83;3.30;;;34.40;99.90;;;;;;5029571;28;20206;-63